createdAt,value
2023-02-04T00:00:20.250Z,99231.38
2023-02-04T00:02:50.400Z,99234.69
2023-02-04T00:05:20.062Z,99232.50
2023-02-04T00:07:48.689Z,99229.50
2023-02-04T00:10:19.010Z,99223.72
2023-02-04T00:12:47.380Z,99221.56
2023-02-04T00:15:15.840Z,99223.25
2023-02-04T00:17:44.284Z,99233.69
2023-02-04T00:20:14.667Z,99229.84
2023-02-04T00:22:43.208Z,99230.69
2023-02-04T00:25:11.674Z,99226.03
2023-02-04T00:27:40.383Z,99236.72
2023-02-04T00:30:11.428Z,99224.13
2023-02-04T00:32:39.833Z,99224.91
2023-02-04T00:35:09.453Z,99220.25
2023-02-04T00:37:39.377Z,99218.06
2023-02-04T00:40:09.477Z,99218.63
2023-02-04T00:42:37.854Z,99214.81
2023-02-04T00:45:07.048Z,99219.22
2023-02-04T00:47:35.857Z,99221.97
2023-02-04T00:50:04.306Z,99195.88
2023-02-04T00:52:33.177Z,99202.75
2023-02-04T00:55:03.024Z,99187.69
2023-02-04T00:57:31.445Z,99196.75
2023-02-04T00:59:59.825Z,99181.94
2023-02-04T01:02:28.326Z,99178.09
2023-02-04T01:04:56.794Z,99161.38
2023-02-04T01:07:25.287Z,99156.16
2023-02-04T01:09:53.699Z,99142.16
2023-02-04T01:12:26.076Z,99154.50
2023-02-04T01:14:54.771Z,99163.59
2023-02-04T01:17:23.293Z,99164.13
2023-02-04T01:19:51.740Z,99157.81
2023-02-04T01:22:20.165Z,99161.94
2023-02-04T01:24:49.050Z,99157.84
2023-02-04T01:27:17.417Z,99151.25
2023-02-04T01:29:47.256Z,99155.94
2023-02-04T01:32:15.669Z,99150.44
2023-02-04T01:34:44.132Z,99169.09
2023-02-04T01:37:12.528Z,99157.81
2023-02-04T01:39:40.918Z,99150.94
2023-02-04T01:42:09.559Z,99160.81
2023-02-04T01:44:38.137Z,99143.78
2023-02-04T01:47:08.363Z,99159.69
2023-02-04T01:49:36.919Z,99147.34
2023-02-04T01:52:05.999Z,99156.66
2023-02-04T01:54:34.487Z,99159.38
2023-02-04T01:57:03.224Z,99167.56
2023-02-04T01:59:31.695Z,99147.25
2023-02-04T02:02:00.168Z,99165.03
2023-02-04T02:04:33.340Z,99164.72
2023-02-04T02:07:06.442Z,99173.22
2023-02-04T02:09:36.022Z,99144.16
2023-02-04T02:12:05.272Z,99169.66
2023-02-04T02:14:33.774Z,99167.47
2023-02-04T02:17:02.306Z,99152.13
2023-02-04T02:19:39.241Z,99144.50
2023-02-04T02:22:17.416Z,99142.03
2023-02-04T02:24:47.164Z,99147.00
2023-02-04T02:27:15.593Z,99135.50
2023-02-04T02:29:44.723Z,99142.38
2023-02-04T02:32:15.897Z,99140.44
2023-02-04T02:34:47.351Z,99146.47
2023-02-04T02:37:15.842Z,99146.78
2023-02-04T02:39:47.333Z,99147.63
2023-02-04T02:42:18.798Z,99144.59
2023-02-04T02:44:49.568Z,99132.53
2023-02-04T02:47:21.748Z,99141.31
2023-02-04T02:49:52.489Z,99128.16
2023-02-04T02:52:23.011Z,99127.06
2023-02-04T02:54:53.959Z,99149.56
2023-02-04T02:57:24.747Z,99142.16
2023-02-04T02:59:53.209Z,99146.31
2023-02-04T03:02:24.805Z,99150.72
2023-02-04T03:05:00.924Z,99133.94
2023-02-04T03:07:29.405Z,99128.75
2023-02-04T03:09:59.279Z,99145.22
2023-02-04T03:12:27.868Z,99136.97
2023-02-04T03:14:56.427Z,99145.75
2023-02-04T03:17:24.877Z,99147.38
2023-02-04T03:19:53.511Z,99159.44
2023-02-04T03:22:22.104Z,99146.84
2023-02-04T03:24:50.580Z,99154.50
2023-02-04T03:27:20.889Z,99142.66
2023-02-04T03:29:49.260Z,99153.06
2023-02-04T03:32:17.922Z,99128.91
2023-02-04T03:34:46.287Z,99135.50
2023-02-04T03:37:14.719Z,99122.84
2023-02-04T03:39:43.143Z,99129.16
2023-02-04T03:42:11.546Z,99133.81
2023-02-04T03:44:41.323Z,99150.00
2023-02-04T03:47:09.675Z,99154.16
2023-02-04T03:49:38.088Z,99173.13
2023-02-04T03:52:07.345Z,99181.06
2023-02-04T03:54:35.781Z,99189.31
2023-02-04T03:57:04.262Z,99217.84
2023-02-04T03:59:32.677Z,99167.59
2023-02-04T04:02:02.549Z,99179.28
2023-02-04T04:04:30.989Z,99185.50
2023-02-04T04:06:59.806Z,99192.50
2023-02-04T04:09:28.205Z,99192.63
2023-02-04T04:11:56.594Z,99225.34
2023-02-04T04:14:25.124Z,99251.19
2023-02-04T04:16:53.507Z,99257.84
2023-02-04T04:19:25.008Z,99281.16
2023-02-04T04:21:53.310Z,99321.84
2023-02-04T04:24:21.729Z,99307.34
2023-02-04T04:26:50.101Z,99304.97
2023-02-04T04:29:18.470Z,99325.25
2023-02-04T04:31:46.927Z,99333.84
2023-02-04T04:34:15.332Z,99358.09
2023-02-04T04:36:45.120Z,99367.34
2023-02-04T04:39:13.616Z,99372.59
2023-02-04T04:41:42.003Z,99368.19
2023-02-04T04:44:10.423Z,99418.56
2023-02-04T04:46:40.686Z,99412.66
2023-02-04T04:49:09.082Z,99412.78
2023-02-04T04:51:37.510Z,99437.63
2023-02-04T04:54:07.932Z,99422.75
2023-02-04T04:56:36.432Z,99454.09
2023-02-04T04:59:04.915Z,99473.47
2023-02-04T05:01:33.985Z,99472.41
2023-02-04T05:04:03.957Z,99491.53
2023-02-04T05:06:32.367Z,99492.59
2023-02-04T05:09:00.739Z,99516.56
2023-02-04T05:11:31.046Z,99543.03
2023-02-04T05:13:59.462Z,99515.97
2023-02-04T05:16:27.935Z,99520.03
2023-02-04T05:18:56.367Z,99519.66
2023-02-04T05:21:24.952Z,99527.50
2023-02-04T05:23:53.374Z,99541.59
2023-02-04T05:26:29.886Z,99546.47
2023-02-04T05:29:01.486Z,99566.28
2023-02-04T05:31:29.923Z,99574.72
2023-02-04T05:33:58.528Z,99566.16
2023-02-04T05:36:27.077Z,99570.81
2023-02-04T05:38:55.482Z,99583.38
2023-02-04T05:41:23.912Z,99587.78
2023-02-04T05:43:52.250Z,99643.41
2023-02-04T05:46:22.071Z,99606.88
2023-02-04T05:48:50.568Z,99628.72
2023-02-04T05:51:19.009Z,99632.50
2023-02-04T05:53:47.336Z,99656.00
2023-02-04T05:56:15.934Z,99642.13
2023-02-04T05:58:44.331Z,99646.53
2023-02-04T06:01:12.734Z,99663.25
2023-02-04T06:03:42.496Z,99668.47
2023-02-04T06:06:10.938Z,99673.94
2023-02-04T06:08:39.414Z,99679.19
2023-02-04T06:11:08.126Z,99680.03
2023-02-04T06:13:36.521Z,99705.19
2023-02-04T06:16:06.504Z,99708.72
2023-02-04T06:18:34.894Z,99720.03
2023-02-04T06:21:04.827Z,99751.50
2023-02-04T06:23:34.718Z,99755.06
2023-02-04T06:26:03.424Z,99782.38
2023-02-04T06:28:31.896Z,99780.47
2023-02-04T06:31:00.432Z,99776.91
2023-02-04T06:33:28.905Z,99775.00
2023-02-04T06:35:57.371Z,99782.97
2023-02-04T06:38:27.151Z,99803.75
2023-02-04T06:40:55.505Z,99807.06
2023-02-04T06:43:25.567Z,99820.97
2023-02-04T06:45:53.963Z,99830.00
2023-02-04T06:48:22.433Z,99839.63
2023-02-04T06:50:50.835Z,99841.06
2023-02-04T06:53:19.251Z,99848.66
2023-02-04T06:55:49.012Z,99863.81
2023-02-04T06:58:17.438Z,99881.50
2023-02-04T07:00:45.876Z,99887.44
2023-02-04T07:03:14.283Z,99874.22
2023-02-04T07:05:42.700Z,99915.84
2023-02-04T07:08:11.123Z,99931.88
2023-02-04T07:10:39.496Z,99935.03
2023-02-04T07:13:09.322Z,99938.22
2023-02-04T07:15:37.822Z,99938.66
2023-02-04T07:18:06.200Z,99943.50
2023-02-04T07:20:34.980Z,99984.28
2023-02-04T07:23:03.541Z,99982.19
2023-02-04T07:25:31.902Z,100008.88
2023-02-04T07:28:01.981Z,99961.25
2023-02-04T07:30:32.294Z,100047.19
2023-02-04T07:33:00.881Z,100017.22
2023-02-04T07:35:29.247Z,100012.66
2023-02-04T07:37:57.607Z,100047.28
2023-02-04T07:40:26.005Z,100049.16
2023-02-04T07:42:54.446Z,100077.50
2023-02-04T07:45:22.926Z,100095.59
2023-02-04T07:47:52.712Z,100046.69
2023-02-04T07:50:21.266Z,100092.69
2023-02-04T07:52:49.711Z,100086.78
2023-02-04T07:55:18.369Z,100107.53
2023-02-04T07:57:46.780Z,100114.25
2023-02-04T08:00:16.564Z,100131.75
2023-02-04T08:02:45.045Z,100128.16
2023-02-04T08:05:14.960Z,100147.69
2023-02-04T08:07:43.399Z,100178.75
2023-02-04T08:10:13.547Z,100185.47
2023-02-04T08:12:41.964Z,100180.66
2023-02-04T08:15:11.224Z,100189.03
2023-02-04T08:17:39.641Z,100196.59
2023-02-04T08:20:09.714Z,100208.34
2023-02-04T08:22:40.016Z,100211.47
2023-02-04T08:25:10.206Z,100210.63
2023-02-04T08:27:38.619Z,100211.88
2023-02-04T08:30:08.876Z,100239.97
2023-02-04T08:32:37.677Z,100232.97
2023-02-04T08:35:06.789Z,100226.22
2023-02-04T08:37:35.511Z,100235.03
2023-02-04T08:40:06.635Z,100250.31
2023-02-04T08:42:35.721Z,100255.31
2023-02-04T08:45:04.889Z,100264.31
2023-02-04T08:47:33.349Z,100266.22
2023-02-04T08:50:01.797Z,100271.47
2023-02-04T08:52:30.246Z,100286.59
2023-02-04T08:54:58.669Z,100292.69
2023-02-04T08:57:28.463Z,100299.66
2023-02-04T08:59:56.829Z,100273.63
2023-02-04T09:02:25.328Z,100298.81
2023-02-04T09:04:53.819Z,100338.06
2023-02-04T09:07:22.541Z,100313.69
2023-02-04T09:09:50.922Z,100343.09
2023-02-04T09:12:19.334Z,100347.06
2023-02-04T09:14:49.288Z,100349.81
2023-02-04T09:17:17.897Z,100360.09
2023-02-04T09:19:46.300Z,100364.06
2023-02-04T09:22:15.355Z,100365.78
2023-02-04T09:24:43.749Z,100395.34
2023-02-04T09:27:12.138Z,100390.31
2023-02-04T09:29:40.564Z,100388.00
2023-02-04T09:32:10.420Z,100425.38
2023-02-04T09:34:38.867Z,100438.19
2023-02-04T09:37:07.327Z,100422.66
2023-02-04T09:39:35.753Z,100421.41
2023-02-04T09:42:04.300Z,100436.31
2023-02-04T09:44:32.768Z,100445.53
2023-02-04T09:47:02.437Z,100458.78
2023-02-04T09:49:33.288Z,100492.56
2023-02-04T09:52:01.849Z,100455.00
2023-02-04T09:54:30.326Z,100457.31
2023-02-04T09:56:59.484Z,100462.13
2023-02-04T09:59:29.804Z,100455.41
2023-02-04T10:02:03.222Z,100448.06
2023-02-04T10:04:33.020Z,100468.81
2023-02-04T10:07:01.520Z,100476.00
2023-02-04T10:09:29.919Z,100480.41
2023-02-04T10:11:58.414Z,100506.47
2023-02-04T10:14:26.852Z,100481.44
2023-02-04T10:16:59.522Z,100500.13
2023-02-04T10:19:30.239Z,100499.09
2023-02-04T10:22:00.618Z,100512.13
2023-02-04T10:24:30.730Z,100511.91
2023-02-04T10:27:09.708Z,100517.13
2023-02-04T10:29:38.559Z,100519.44
2023-02-04T10:32:07.667Z,100519.41
2023-02-04T10:34:39.957Z,100530.78
2023-02-04T10:37:22.647Z,100502.59
2023-02-04T10:39:51.521Z,100528.63
2023-02-04T10:42:25.283Z,100509.09
2023-02-04T10:44:54.726Z,100493.31
2023-02-04T10:47:25.728Z,100522.94
2023-02-04T10:49:56.505Z,100535.38
2023-02-04T10:52:37.357Z,100526.13
2023-02-04T10:55:07.609Z,100521.66
2023-02-04T10:57:40.400Z,100521.19
2023-02-04T11:00:19.154Z,100512.41
2023-02-04T11:02:56.080Z,100536.09
2023-02-04T11:05:30.313Z,100505.84
2023-02-04T11:08:00.728Z,100536.59
2023-02-04T11:10:33.217Z,100544.00
2023-02-04T11:13:05.295Z,100535.00
2023-02-04T11:15:48.511Z,100544.34
2023-02-04T11:18:31.200Z,100576.75
2023-02-04T11:21:01.286Z,100548.38
2023-02-04T11:23:38.308Z,100549.66
2023-02-04T11:26:17.311Z,100540.00
2023-02-04T11:28:56.162Z,100553.00
2023-02-04T11:31:47.100Z,100542.22
2023-02-04T11:34:46.797Z,100531.31
2023-02-04T11:37:36.098Z,100559.06
2023-02-04T11:40:22.138Z,100544.53
2023-02-04T11:42:51.007Z,100541.25
2023-02-04T11:45:26.538Z,100554.47
2023-02-04T11:47:57.785Z,100541.69
2023-02-04T11:50:30.609Z,100548.63
2023-02-04T11:53:01.947Z,100562.00
2023-02-04T11:55:33.673Z,100554.66
2023-02-04T11:58:02.523Z,100570.63
2023-02-04T12:00:33.636Z,100596.22
2023-02-04T12:03:06.340Z,100589.78
2023-02-04T12:05:42.620Z,100615.13
2023-02-04T12:08:13.591Z,100606.09
2023-02-04T12:10:51.140Z,100617.50
2023-02-04T12:13:24.222Z,100631.03
2023-02-04T12:16:02.482Z,100616.53
2023-02-04T12:18:31.668Z,100614.44
2023-02-04T12:21:01.556Z,100610.63
2023-02-04T12:23:31.527Z,100601.78
2023-02-04T12:26:01.420Z,100595.63
2023-02-04T12:28:30.248Z,100593.28
2023-02-04T12:30:58.789Z,100583.97
2023-02-04T12:33:27.317Z,100595.13
2023-02-04T12:35:55.725Z,100613.19
2023-02-04T12:38:24.166Z,100621.69
2023-02-04T12:40:52.600Z,100606.38
2023-02-04T12:43:22.354Z,100604.53
2023-02-04T12:45:50.761Z,100622.03
2023-02-04T12:48:19.238Z,100622.63
2023-02-04T12:50:47.837Z,100623.81
2023-02-04T12:53:16.506Z,100602.13
2023-02-04T12:55:45.032Z,100608.97
2023-02-04T12:58:13.446Z,100591.69
2023-02-04T13:00:43.463Z,100598.06
2023-02-04T13:03:11.866Z,100616.31
2023-02-04T13:05:40.358Z,100615.44
2023-02-04T13:08:08.948Z,100626.84
2023-02-04T13:10:37.382Z,100616.81
2023-02-04T13:13:05.765Z,100627.56
2023-02-04T13:15:34.351Z,100626.25
2023-02-04T13:18:04.495Z,100647.03
2023-02-04T13:20:32.895Z,100632.72
2023-02-04T13:23:01.343Z,100636.47
2023-02-04T13:25:30.069Z,100646.66
2023-02-04T13:27:58.567Z,100642.75
2023-02-04T13:30:27.056Z,100658.16
2023-02-04T13:32:55.553Z,100654.81
2023-02-04T13:35:25.558Z,100661.13
2023-02-04T13:37:56.253Z,100664.53
2023-02-04T13:40:24.854Z,100667.25
2023-02-04T13:42:53.273Z,100684.72
2023-02-04T13:45:21.911Z,100675.91
2023-02-04T13:47:50.377Z,100679.47
2023-02-04T13:50:19.111Z,100688.94
2023-02-04T13:52:49.058Z,100699.47
2023-02-04T13:55:17.756Z,100687.69
2023-02-04T13:57:46.195Z,100701.38
2023-02-04T14:00:16.203Z,100697.81
2023-02-04T14:02:44.635Z,100703.28
2023-02-04T14:05:13.296Z,100695.50
2023-02-04T14:07:41.756Z,100708.53
2023-02-04T14:10:12.205Z,100700.13
2023-02-04T14:12:41.960Z,100702.66
2023-02-04T14:15:12.089Z,100707.72
2023-02-04T14:17:40.753Z,100707.72
2023-02-04T14:20:10.864Z,100717.78
2023-02-04T14:22:39.262Z,100717.56
2023-02-04T14:25:10.458Z,100731.00
2023-02-04T14:27:42.194Z,100732.69
2023-02-04T14:30:18.907Z,100737.50
2023-02-04T14:32:47.560Z,100730.59
2023-02-04T14:35:17.273Z,100741.69
2023-02-04T14:37:46.005Z,100737.09
2023-02-04T14:40:18.179Z,100737.47
2023-02-04T14:42:46.936Z,100742.13
2023-02-04T14:45:17.016Z,100746.75
2023-02-04T14:47:45.680Z,100751.34
2023-02-04T14:50:18.334Z,100754.50
2023-02-04T14:52:46.902Z,100758.28
2023-02-04T14:55:17.050Z,100768.56
2023-02-04T14:57:45.826Z,100756.34
2023-02-04T15:00:16.405Z,100759.72
2023-02-04T15:02:45.774Z,100760.91
2023-02-04T15:05:15.296Z,100763.88
2023-02-04T15:07:43.818Z,100768.91
2023-02-04T15:10:15.350Z,100772.03
2023-02-04T15:12:45.253Z,100773.50
2023-02-04T15:15:13.882Z,100780.00
2023-02-04T15:17:42.754Z,100775.78
2023-02-04T15:20:12.595Z,100775.53
2023-02-04T15:22:41.061Z,100792.34
2023-02-04T15:25:11.435Z,100785.38
2023-02-04T15:27:40.247Z,100788.03
2023-02-04T15:30:12.077Z,100793.69
2023-02-04T15:32:42.968Z,100787.34
2023-02-04T15:35:11.829Z,100796.97
2023-02-04T15:37:40.580Z,100796.50
2023-02-04T15:40:10.987Z,100795.25
2023-02-04T15:42:39.511Z,100796.69
2023-02-04T15:45:10.470Z,100800.66
2023-02-04T15:47:39.277Z,100802.53
2023-02-04T15:50:10.997Z,100806.31
2023-02-04T15:52:39.604Z,100815.53
2023-02-04T15:55:09.338Z,100813.41
2023-02-04T15:57:39.759Z,100829.72
2023-02-04T16:00:11.988Z,100825.88
2023-02-04T16:02:40.760Z,100825.63
2023-02-04T16:05:10.091Z,100828.94
2023-02-04T16:07:38.985Z,100815.25
2023-02-04T16:10:08.229Z,100828.63
2023-02-04T16:12:37.276Z,100824.63
2023-02-04T16:15:06.830Z,100840.53
2023-02-04T16:17:36.931Z,100839.03
2023-02-04T16:20:05.804Z,100845.72
2023-02-04T16:22:34.686Z,100842.50
2023-02-04T16:25:03.806Z,100833.91
2023-02-04T16:27:33.781Z,100847.72
2023-02-04T16:30:03.812Z,100847.25
2023-02-04T16:32:33.962Z,100856.66
2023-02-04T16:35:05.623Z,100859.78
2023-02-04T16:37:34.259Z,100861.03
2023-02-04T16:40:03.028Z,100855.09
2023-02-04T16:42:32.541Z,100860.16
2023-02-04T16:45:01.354Z,100861.84
2023-02-04T16:47:30.152Z,100865.25
2023-02-04T16:50:01.061Z,100865.25
2023-02-04T16:52:32.834Z,100876.94
2023-02-04T16:55:01.887Z,100865.88
2023-02-04T16:57:30.617Z,100877.44
2023-02-04T16:59:59.258Z,100873.28
2023-02-04T17:02:27.986Z,100879.84
2023-02-04T17:04:56.438Z,100878.59
2023-02-04T17:07:25.521Z,100879.06
2023-02-04T17:09:55.802Z,100890.59
2023-02-04T17:12:25.126Z,100881.19
2023-02-04T17:14:54.483Z,100892.72
2023-02-04T17:17:23.318Z,100873.28
2023-02-04T17:19:51.790Z,100892.16
2023-02-04T17:22:20.595Z,100892.78
2023-02-04T17:24:49.038Z,100895.13
2023-02-04T17:27:19.568Z,100897.50
2023-02-04T17:29:48.134Z,100898.97
2023-02-04T17:32:16.888Z,100903.19
2023-02-04T17:34:45.744Z,100895.47
2023-02-04T17:37:14.502Z,100892.75
2023-02-04T17:39:44.141Z,100900.72
2023-02-04T17:42:13.621Z,100888.97
2023-02-04T17:44:44.829Z,100882.84
2023-02-04T17:47:14.380Z,100887.50
2023-02-04T17:49:43.735Z,100889.56
2023-02-04T17:52:12.897Z,100888.53
2023-02-04T17:54:42.537Z,100883.28
2023-02-04T17:57:20.424Z,100880.06
2023-02-04T17:59:52.981Z,100878.59
2023-02-04T18:02:28.225Z,100883.59
2023-02-04T18:05:02.067Z,100888.41
2023-02-04T18:07:30.582Z,100883.13
2023-02-04T18:10:19.601Z,100886.25
2023-02-04T18:12:49.022Z,100886.69
2023-02-04T18:15:34.650Z,100881.47
2023-02-04T18:18:19.902Z,100878.94
2023-02-04T18:20:52.462Z,100890.00
2023-02-04T18:23:21.484Z,100894.44
2023-02-04T18:25:51.427Z,100888.34
2023-02-04T18:28:23.320Z,100888.97
2023-02-04T18:31:00.473Z,100900.91
2023-02-04T18:33:31.905Z,100902.41
2023-02-04T18:36:02.875Z,100924.00
2023-02-04T18:38:39.262Z,100909.34
2023-02-04T18:41:31.499Z,100914.59
2023-02-04T18:44:17.704Z,100897.00
2023-02-04T18:46:48.949Z,100910.47
2023-02-04T18:49:28.865Z,100895.13
2023-02-04T18:52:00.592Z,100906.91
2023-02-04T18:54:36.724Z,100915.06
2023-02-04T18:57:29.285Z,100900.59
2023-02-04T19:00:26.332Z,100914.81
2023-02-04T19:03:00.125Z,100904.94
2023-02-04T19:05:35.429Z,100918.56
2023-02-04T19:08:28.969Z,100932.38
2023-02-04T19:11:01.774Z,100911.81
2023-02-04T19:13:41.608Z,100922.34
2023-02-04T19:16:28.496Z,100925.44
2023-02-04T19:19:03.105Z,100923.34
2023-02-04T19:21:35.377Z,100924.00
2023-02-04T19:24:27.938Z,100924.00
2023-02-04T19:27:00.340Z,100928.63
2023-02-04T19:29:43.839Z,100929.66
2023-02-04T19:32:29.474Z,100930.94
2023-02-04T19:35:18.013Z,100932.66
2023-02-04T19:37:54.008Z,100936.66
2023-02-04T19:40:35.057Z,100927.47
2023-02-04T19:43:20.523Z,100916.16
2023-02-04T19:45:51.363Z,100921.22
2023-02-04T19:48:28.525Z,100918.97
2023-02-04T19:50:59.048Z,100919.63
2023-02-04T19:53:31.164Z,100913.09
2023-02-04T19:56:00.535Z,100910.22
2023-02-04T19:58:38.277Z,100904.94
2023-02-04T20:01:12.528Z,100915.19
2023-02-04T20:03:47.525Z,100905.34
2023-02-04T20:06:31.870Z,100916.41
2023-02-04T20:09:08.234Z,100918.50
2023-02-04T20:11:54.369Z,100923.31
2023-02-04T20:14:49.414Z,100925.38
2023-02-04T20:17:46.030Z,100937.31
2023-02-04T20:20:23.218Z,100928.28
2023-02-04T20:22:57.222Z,100932.72
2023-02-04T20:25:42.624Z,100933.56
2023-02-04T20:28:42.893Z,100949.06
2023-02-04T20:31:29.458Z,100936.47
2023-02-04T20:34:01.498Z,100939.00
2023-02-04T20:36:39.044Z,100972.56
2023-02-04T20:39:42.045Z,100959.75
2023-02-04T20:42:36.505Z,100976.13
2023-02-04T20:45:25.893Z,100990.00
2023-02-04T20:48:00.845Z,100990.50
2023-02-04T20:50:41.276Z,101010.38
2023-02-04T20:53:26.498Z,101006.78
2023-02-04T20:56:03.932Z,101008.97
2023-02-04T20:58:38.963Z,101016.06
2023-02-04T21:01:24.282Z,101013.72
2023-02-04T21:03:52.982Z,101022.06
2023-02-04T21:06:28.577Z,101016.00
2023-02-04T21:08:59.295Z,101015.13
2023-02-04T21:11:30.831Z,101018.50
2023-02-04T21:13:59.786Z,101020.63
2023-02-04T21:16:29.315Z,101013.38
2023-02-04T21:18:58.611Z,101019.56
2023-02-04T21:21:29.025Z,101023.19
2023-02-04T21:23:58.447Z,101015.75
2023-02-04T21:26:29.104Z,101020.22
2023-02-04T21:28:58.315Z,101008.41
2023-02-04T21:31:27.921Z,101018.78
2023-02-04T21:33:57.549Z,101015.59
2023-02-04T21:36:27.894Z,101005.72
2023-02-04T21:38:56.730Z,101013.22
2023-02-04T21:41:25.858Z,101014.06
2023-02-04T21:43:56.312Z,101018.66
2023-02-04T21:46:25.210Z,101004.22
2023-02-04T21:48:54.075Z,101003.19
2023-02-04T21:51:22.798Z,100990.47
2023-02-04T21:53:51.845Z,101000.28
2023-02-04T21:56:20.370Z,101002.84
2023-02-04T21:58:49.043Z,101009.97
2023-02-04T22:01:19.182Z,101009.09
2023-02-04T22:03:47.732Z,101022.34
2023-02-04T22:06:16.194Z,101020.94
2023-02-04T22:08:44.650Z,101018.91
2023-02-04T22:11:13.087Z,101027.72
2023-02-04T22:14:00.206Z,101034.84
2023-02-04T22:16:30.162Z,101032.31
2023-02-04T22:18:58.591Z,101029.41
2023-02-04T22:21:27.045Z,101035.69
2023-02-04T22:23:55.470Z,101037.41
2023-02-04T22:26:23.931Z,101052.00
2023-02-04T22:28:52.350Z,101035.88
2023-02-04T22:31:20.830Z,101038.09
2023-02-04T22:33:50.676Z,101034.25
2023-02-04T22:36:19.138Z,101029.38
2023-02-04T22:38:47.604Z,101036.16
2023-02-04T22:41:16.048Z,101037.38
2023-02-04T22:43:44.496Z,101028.75
2023-02-04T22:46:13.088Z,101036.25
2023-02-04T22:48:41.699Z,101029.28
2023-02-04T22:51:11.673Z,101028.78
2023-02-04T22:53:40.201Z,101031.22
2023-02-04T22:56:08.961Z,101038.72
2023-02-04T22:58:37.393Z,101055.38
2023-02-04T23:01:06.252Z,101039.59
2023-02-04T23:03:35.116Z,101043.88
2023-02-04T23:06:03.632Z,101038.31
2023-02-04T23:08:33.551Z,101029.69
2023-02-04T23:11:02.134Z,101035.47
2023-02-04T23:13:30.648Z,101030.56
2023-02-04T23:15:59.247Z,101021.09
2023-02-04T23:18:27.753Z,101034.16
2023-02-04T23:20:56.206Z,101037.22
2023-02-04T23:23:25.001Z,101038.59
2023-02-04T23:25:54.894Z,101035.22
2023-02-04T23:28:23.372Z,101035.03
2023-02-04T23:30:51.842Z,101031.97
2023-02-04T23:33:20.337Z,101021.63
2023-02-04T23:35:48.923Z,101014.81
2023-02-04T23:38:17.679Z,101009.84
2023-02-04T23:40:46.156Z,101009.84
2023-02-04T23:43:16.311Z,101014.47
2023-02-04T23:45:45.771Z,101026.16
2023-02-04T23:48:14.266Z,101029.72
2023-02-04T23:50:42.719Z,101023.44
2023-02-04T23:53:11.181Z,101023.28
2023-02-04T23:55:39.849Z,101037.66
2023-02-04T23:58:08.349Z,101037.50
